sensor_id;sensor_type;location;lat;lon;timestamp;pressure;altitude;pressure_sealevel;temperature;humidity
44144;BME280;71749;51.920;4.492;2024-03-17T00:01:38;66944.06;;;9.75;nan
44144;BME280;71749;51.920;4.492;2024-03-17T00:04:25;66974.47;;;10.08;nan
44144;BME280;71749;51.920;4.492;2024-03-17T00:07:14;66973.94;;;10.07;nan
44144;BME280;71749;51.920;4.492;2024-03-17T00:09:59;66960.22;;;9.90;nan
44144;BME280;71749;51.920;4.492;2024-03-17T00:12:43;66968.19;;;10.00;nan
44144;BME280;71749;51.920;4.492;2024-03-17T00:15:28;66988.84;;;10.18;nan
44144;BME280;71749;51.920;4.492;2024-03-17T00:18:13;66952.97;;;9.83;nan
44144;BME280;71749;51.920;4.492;2024-03-17T00:20:57;66972.09;;;10.03;nan
44144;BME280;71749;51.920;4.492;2024-03-17T00:23:43;66975.44;;;10.06;nan
44144;BME280;71749;51.920;4.492;2024-03-17T00:26:27;66992.38;;;10.24;nan
44144;BME280;71749;51.920;4.492;2024-03-17T00:29:14;66996.81;;;10.28;nan
44144;BME280;71749;51.920;4.492;2024-03-17T00:31:58;67001.84;;;10.33;nan
44144;BME280;71749;51.920;4.492;2024-03-17T00:34:43;67002.94;;;10.34;nan
44144;BME280;71749;51.920;4.492;2024-03-17T00:37:28;67004.84;;;10.31;nan
44144;BME280;71749;51.920;4.492;2024-03-17T00:40:12;67004.84;;;10.31;nan
44144;BME280;71749;51.920;4.492;2024-03-17T00:42:56;66995.91;;;10.22;nan
44144;BME280;71749;51.920;4.492;2024-03-17T00:45:41;67000.38;;;10.27;nan
44144;BME280;71749;51.920;4.492;2024-03-17T00:48:25;66962.06;;;9.94;nan
44144;BME280;71749;51.920;4.492;2024-03-17T00:51:10;66971.38;;;10.00;nan
44144;BME280;71749;51.920;4.492;2024-03-17T00:53:54;66998.16;;;10.25;nan
44144;BME280;71749;51.920;4.492;2024-03-17T00:56:41;66990.72;;;10.15;nan
44144;BME280;71749;51.920;4.492;2024-03-17T00:59:25;66984.75;;;10.12;nan
44144;BME280;71749;51.920;4.492;2024-03-17T01:02:15;66946.09;;;9.75;nan
44144;BME280;71749;51.920;4.492;2024-03-17T01:05:02;66955.53;;;9.91;nan
44144;BME280;71749;51.920;4.492;2024-03-17T01:07:49;66955.94;;;9.89;nan
44144;BME280;71749;51.920;4.492;2024-03-17T01:10:37;66982.13;;;10.12;nan
44144;BME280;71749;51.920;4.492;2024-03-17T01:13:21;66986.97;;;10.14;nan
44144;BME280;71749;51.920;4.492;2024-03-17T01:16:05;66976.22;;;10.02;nan
44144;BME280;71749;51.920;4.492;2024-03-17T01:18:51;66953.53;;;9.84;nan
44144;BME280;71749;51.920;4.492;2024-03-17T01:21:37;66961.31;;;9.91;nan
44144;BME280;71749;51.920;4.492;2024-03-17T01:24:23;66939.03;;;9.71;nan
44144;BME280;71749;51.920;4.492;2024-03-17T01:27:09;66919.88;;;9.58;nan
44144;BME280;71749;51.920;4.492;2024-03-17T01:30:01;66940.31;;;9.74;nan
44144;BME280;71749;51.920;4.492;2024-03-17T01:32:53;66944.63;;;9.76;nan
44144;BME280;71749;51.920;4.492;2024-03-17T01:35:37;66959.09;;;9.89;nan
44144;BME280;71749;51.920;4.492;2024-03-17T01:38:22;66918.75;;;9.57;nan
44144;BME280;71749;51.920;4.492;2024-03-17T01:41:06;66952.41;;;9.83;nan
44144;BME280;71749;51.920;4.492;2024-03-17T01:43:51;66971.38;;;10.00;nan
44144;BME280;71749;51.920;4.492;2024-03-17T01:46:35;67018.78;;;10.43;nan
44144;BME280;71749;51.920;4.492;2024-03-17T01:49:21;66972.47;;;10.01;nan
44144;BME280;71749;51.920;4.492;2024-03-17T01:52:06;66939.38;;;9.76;nan
44144;BME280;71749;51.920;4.492;2024-03-17T01:54:51;66953.13;;;9.86;nan
44144;BME280;71749;51.920;4.492;2024-03-17T01:57:39;66947.56;;;9.81;nan
44144;BME280;71749;51.920;4.492;2024-03-17T02:00:24;66928.22;;;9.66;nan
44144;BME280;71749;51.920;4.492;2024-03-17T02:03:09;66922.09;;;9.60;nan
44144;BME280;71749;51.920;4.492;2024-03-17T02:05:53;66923.03;;;9.59;nan
44144;BME280;71749;51.920;4.492;2024-03-17T02:08:51;66931.22;;;9.64;nan
44144;BME280;71749;51.920;4.492;2024-03-17T02:11:36;66923.03;;;9.59;nan
44144;BME280;71749;51.920;4.492;2024-03-17T02:14:20;66943.50;;;9.75;nan
44144;BME280;71749;51.920;4.492;2024-03-17T02:17:06;66945.88;;;9.79;nan
44144;BME280;71749;51.920;4.492;2024-03-17T02:19:51;66931.56;;;9.69;nan
44144;BME280;71749;51.920;4.492;2024-03-17T02:22:36;66964.84;;;9.97;nan
44144;BME280;71749;51.920;4.492;2024-03-17T02:25:20;66940.88;;;9.75;nan
44144;BME280;71749;51.920;4.492;2024-03-17T02:28:05;66976.94;;;10.05;nan
44144;BME280;71749;51.920;4.492;2024-03-17T02:30:58;66985.13;;;10.17;nan
44144;BME280;71749;51.920;4.492;2024-03-17T02:33:43;66968.75;;;10.00;nan
44144;BME280;71749;51.920;4.492;2024-03-17T02:36:28;66968.56;;;9.98;nan
44144;BME280;71749;51.920;4.492;2024-03-17T02:39:12;66974.72;;;10.03;nan
44144;BME280;71749;51.920;4.492;2024-03-17T02:42:18;66972.28;;;10.06;nan
44144;BME280;71749;51.920;4.492;2024-03-17T02:45:02;66973.38;;;10.07;nan
44144;BME280;71749;51.920;4.492;2024-03-17T02:47:47;66961.16;;;9.89;nan
44144;BME280;71749;51.920;4.492;2024-03-17T02:50:33;66969.13;;;9.98;nan
44144;BME280;71749;51.920;4.492;2024-03-17T02:53:18;66955.38;;;9.88;nan
44144;BME280;71749;51.920;4.492;2024-03-17T02:56:04;66949.06;;;9.80;nan
44144;BME280;71749;51.920;4.492;2024-03-17T02:58:48;66944.63;;;9.76;nan
44144;BME280;71749;51.920;4.492;2024-03-17T03:01:33;66927.31;;;9.60;nan
44144;BME280;71749;51.920;4.492;2024-03-17T03:04:17;66934.19;;;9.69;nan
44144;BME280;71749;51.920;4.492;2024-03-17T03:07:02;66942.19;;;9.71;nan
44144;BME280;71749;51.920;4.492;2024-03-17T03:09:46;66929.00;;;9.62;nan
44144;BME280;71749;51.920;4.492;2024-03-17T03:12:34;66941.44;;;9.75;nan
44144;BME280;71749;51.920;4.492;2024-03-17T03:15:19;66935.69;;;9.68;nan
44144;BME280;71749;51.920;4.492;2024-03-17T03:18:03;66900.38;;;9.40;nan
44144;BME280;71749;51.920;4.492;2024-03-17T03:20:52;66930.28;;;9.65;nan
44144;BME280;71749;51.920;4.492;2024-03-17T03:23:39;66945.16;;;9.76;nan
44144;BME280;71749;51.920;4.492;2024-03-17T03:26:24;66963.00;;;9.93;nan
44144;BME280;71749;51.920;4.492;2024-03-17T03:29:10;66948.84;;;9.84;nan
44144;BME280;71749;51.920;4.492;2024-03-17T03:31:54;66967.22;;;10.01;nan
44144;BME280;71749;51.920;4.492;2024-03-17T03:34:39;66979.16;;;10.07;nan
44144;BME280;71749;51.920;4.492;2024-03-17T03:37:23;66958.72;;;9.91;nan
44144;BME280;71749;51.920;4.492;2024-03-17T03:40:08;66985.66;;;10.18;nan
44144;BME280;71749;51.920;4.492;2024-03-17T03:43:01;66982.13;;;10.12;nan
44144;BME280;71749;51.920;4.492;2024-03-17T03:45:46;66992.56;;;10.19;nan
44144;BME280;71749;51.920;4.492;2024-03-17T03:48:31;66947.19;;;9.83;nan
44144;BME280;71749;51.920;4.492;2024-03-17T03:51:16;66958.72;;;9.91;nan
44144;BME280;71749;51.920;4.492;2024-03-17T03:54:00;66956.13;;;9.84;nan
44144;BME280;71749;51.920;4.492;2024-03-17T03:56:45;66920.25;;;9.56;nan
44144;BME280;71749;51.920;4.492;2024-03-17T03:59:29;66917.31;;;9.51;nan
44144;BME280;71749;51.920;4.492;2024-03-17T04:02:14;66938.97;;;9.78;nan
44144;BME280;71749;51.920;4.492;2024-03-17T04:04:58;66920.06;;;9.54;nan
44144;BME280;71749;51.920;4.492;2024-03-17T04:07:43;66943.13;;;9.77;nan
44144;BME280;71749;51.920;4.492;2024-03-17T04:10:30;66966.91;;;9.96;nan
44144;BME280;71749;51.920;4.492;2024-03-17T04:13:14;66997.75;;;10.27;nan
44144;BME280;71749;51.920;4.492;2024-03-17T04:15:59;66995.13;;;10.27;nan
44144;BME280;71749;51.920;4.492;2024-03-17T04:18:43;67005.56;;;10.34;nan
44144;BME280;71749;51.920;4.492;2024-03-17T04:21:28;66998.69;;;10.25;nan
44144;BME280;71749;51.920;4.492;2024-03-17T04:24:12;66983.41;;;10.16;nan
44144;BME280;71749;51.920;4.492;2024-03-17T04:26:57;66969.84;;;10.01;nan
44144;BME280;71749;51.920;4.492;2024-03-17T04:29:42;66958.00;;;9.88;nan
44144;BME280;71749;51.920;4.492;2024-03-17T04:32:27;66986.22;;;10.18;nan
44144;BME280;71749;51.920;4.492;2024-03-17T04:35:11;66953.13;;;9.86;nan
44144;BME280;71749;51.920;4.492;2024-03-17T04:37:56;66980.47;;;10.11;nan
44144;BME280;71749;51.920;4.492;2024-03-17T04:40:44;66995.19;;;10.19;nan
44144;BME280;71749;51.920;4.492;2024-03-17T04:43:28;66990.13;;;10.22;nan
44144;BME280;71749;51.920;4.492;2024-03-17T04:46:13;66981.41;;;10.09;nan
44144;BME280;71749;51.920;4.492;2024-03-17T04:48:58;66934.75;;;9.69;nan
44144;BME280;71749;51.920;4.492;2024-03-17T04:51:42;66953.53;;;9.84;nan
44144;BME280;71749;51.920;4.492;2024-03-17T04:54:26;66938.09;;;9.72;nan
44144;BME280;71749;51.920;4.492;2024-03-17T04:57:11;66939.19;;;9.73;nan
44144;BME280;71749;51.920;4.492;2024-03-17T04:59:55;66952.56;;;9.86;nan
44144;BME280;71749;51.920;4.492;2024-03-17T05:02:40;66853.38;;;8.95;nan
44144;BME280;71749;51.920;4.492;2024-03-17T05:05:25;66918.19;;;9.57;nan
44144;BME280;71749;51.920;4.492;2024-03-17T05:08:10;66920.06;;;9.54;nan
44144;BME280;71749;51.920;4.492;2024-03-17T05:11:05;66945.72;;;9.77;nan
44144;BME280;71749;51.920;4.492;2024-03-17T05:13:50;66933.06;;;9.68;nan
44144;BME280;71749;51.920;4.492;2024-03-17T05:16:35;66911.16;;;9.46;nan
44144;BME280;71749;51.920;4.492;2024-03-17T05:19:22;66910.38;;;9.50;nan
44144;BME280;71749;51.920;4.492;2024-03-17T05:22:07;66925.66;;;9.59;nan
44144;BME280;71749;51.920;4.492;2024-03-17T05:24:51;66958.00;;;9.88;nan
44144;BME280;71749;51.920;4.492;2024-03-17T05:27:36;66953.53;;;9.84;nan
44144;BME280;71749;51.920;4.492;2024-03-17T05:30:20;66951.47;;;9.84;nan
44144;BME280;71749;51.920;4.492;2024-03-17T05:33:05;66910.59;;;9.45;nan
44144;BME280;71749;51.920;4.492;2024-03-17T05:35:53;66937.13;;;9.74;nan
44144;BME280;71749;51.920;4.492;2024-03-17T05:38:38;66917.06;;;9.56;nan
44144;BME280;71749;51.920;4.492;2024-03-17T05:41:22;66902.25;;;9.37;nan
44144;BME280;71749;51.920;4.492;2024-03-17T05:44:08;66928.22;;;9.66;nan
44144;BME280;71749;51.920;4.492;2024-03-17T05:46:53;66905.19;;;9.42;nan
44144;BME280;71749;51.920;4.492;2024-03-17T05:49:40;66883.47;;;9.23;nan
44144;BME280;71749;51.920;4.492;2024-03-17T05:52:26;66886.66;;;9.23;nan
44144;BME280;71749;51.920;4.492;2024-03-17T05:55:11;66895.34;;;9.36;nan
44144;BME280;71749;51.920;4.492;2024-03-17T05:57:55;66944.22;;;9.78;nan
44144;BME280;71749;51.920;4.492;2024-03-17T06:00:40;66939.59;;;9.71;nan
44144;BME280;71749;51.920;4.492;2024-03-17T06:03:24;66963.56;;;9.93;nan
44144;BME280;71749;51.920;4.492;2024-03-17T06:06:09;66989.22;;;10.16;nan
44144;BME280;71749;51.920;4.492;2024-03-17T06:08:56;66966.13;;;10.00;nan
44144;BME280;71749;51.920;4.492;2024-03-17T06:11:40;66971.38;;;10.00;nan
44144;BME280;71749;51.920;4.492;2024-03-17T06:14:25;66950.75;;;9.81;nan
44144;BME280;71749;51.920;4.492;2024-03-17T06:17:09;66954.63;;;9.85;nan
44144;BME280;71749;51.920;4.492;2024-03-17T06:19:57;66944.22;;;9.78;nan
44144;BME280;71749;51.920;4.492;2024-03-17T06:22:42;66940.88;;;9.75;nan
44144;BME280;71749;51.920;4.492;2024-03-17T06:25:26;66892.22;;;9.28;nan
44144;BME280;71749;51.920;4.492;2024-03-17T06:28:14;66886.66;;;9.23;nan
44144;BME280;71749;51.920;4.492;2024-03-17T06:30:59;66909.66;;;9.47;nan
44144;BME280;71749;51.920;4.492;2024-03-17T06:33:43;66953.69;;;9.87;nan
44144;BME280;71749;51.920;4.492;2024-03-17T06:36:28;66961.31;;;9.91;nan
44144;BME280;71749;51.920;4.492;2024-03-17T06:39:12;66953.31;;;9.89;nan
44144;BME280;71749;51.920;4.492;2024-03-17T06:41:59;66931.00;;;9.68;nan
44144;BME280;71749;51.920;4.492;2024-03-17T06:44:44;66951.69;;;9.80;nan
44144;BME280;71749;51.920;4.492;2024-03-17T06:47:28;66948.13;;;9.81;nan
44144;BME280;71749;51.920;4.492;2024-03-17T06:50:13;66939.38;;;9.76;nan
44144;BME280;71749;51.920;4.492;2024-03-17T06:52:58;66950.53;;;9.86;nan
44144;BME280;71749;51.920;4.492;2024-03-17T06:55:43;67014.09;;;10.44;nan
44144;BME280;71749;51.920;4.492;2024-03-17T06:58:28;67051.09;;;10.80;nan
44144;BME280;71749;51.920;4.492;2024-03-17T07:01:13;67054.66;;;10.78;nan
44144;BME280;71749;51.920;4.492;2024-03-17T07:03:58;67035.13;;;10.60;nan
44144;BME280;71749;51.920;4.492;2024-03-17T07:06:43;67007.41;;;10.38;nan
44144;BME280;71749;51.920;4.492;2024-03-17T07:09:27;67030.84;;;10.59;nan
44144;BME280;71749;51.920;4.492;2024-03-17T07:12:12;67063.19;;;10.88;nan
44144;BME280;71749;51.920;4.492;2024-03-17T07:14:56;67083.28;;;11.07;nan
44144;BME280;71749;51.920;4.492;2024-03-17T07:17:41;67095.22;;;11.13;nan
44144;BME280;71749;51.920;4.492;2024-03-17T07:20:25;67156.22;;;11.70;nan
44144;BME280;71749;51.920;4.492;2024-03-17T07:23:10;67153.28;;;11.65;nan
44144;BME280;71749;51.920;4.492;2024-03-17T07:25:56;67141.72;;;11.57;nan
44144;BME280;71749;51.920;4.492;2024-03-17T07:28:41;67139.09;;;11.57;nan
44144;BME280;71749;51.920;4.492;2024-03-17T07:31:26;67127.59;;;11.42;nan
44144;BME280;71749;51.920;4.492;2024-03-17T07:34:10;67118.28;;;11.36;nan
44144;BME280;71749;51.920;4.492;2024-03-17T07:36:54;67084.06;;;11.02;nan
44144;BME280;71749;51.920;4.492;2024-03-17T07:39:39;67072.34;;;10.92;nan
44144;BME280;71749;51.920;4.492;2024-03-17T07:42:24;67061.34;;;10.84;nan
44144;BME280;71749;51.920;4.492;2024-03-17T07:45:08;67073.06;;;10.95;nan
44144;BME280;71749;51.920;4.492;2024-03-17T07:47:53;67086.28;;;11.04;nan
44144;BME280;71749;51.920;4.492;2024-03-17T07:50:37;67081.84;;;11.00;nan
44144;BME280;71749;51.920;4.492;2024-03-17T07:53:22;67076.59;;;11.00;nan
44144;BME280;71749;51.920;4.492;2024-03-17T07:56:10;67071.00;;;10.95;nan
44144;BME280;71749;51.920;4.492;2024-03-17T07:58:56;67098.41;;;11.13;nan
44144;BME280;71749;51.920;4.492;2024-03-17T08:01:41;67122.56;;;11.37;nan
44144;BME280;71749;51.920;4.492;2024-03-17T08:04:31;67065.97;;;10.91;nan
44144;BME280;71749;51.920;4.492;2024-03-17T08:07:16;67065.63;;;10.86;nan
44144;BME280;71749;51.920;4.492;2024-03-17T08:10:00;67035.69;;;10.61;nan
44144;BME280;71749;51.920;4.492;2024-03-17T08:12:44;67060.06;;;10.81;nan
44144;BME280;71749;51.920;4.492;2024-03-17T08:15:29;67114.34;;;11.32;nan
44144;BME280;71749;51.920;4.492;2024-03-17T08:18:14;67103.03;;;11.20;nan
44144;BME280;71749;51.920;4.492;2024-03-17T08:21:00;67086.06;;;11.09;nan
44144;BME280;71749;51.920;4.492;2024-03-17T08:23:46;67060.97;;;10.86;nan
44144;BME280;71749;51.920;4.492;2024-03-17T08:26:31;67039.41;;;10.62;nan
44144;BME280;71749;51.920;4.492;2024-03-17T08:29:15;67091.66;;;11.14;nan
44144;BME280;71749;51.920;4.492;2024-03-17T08:32:00;67085.00;;;11.01;nan
44144;BME280;71749;51.920;4.492;2024-03-17T08:34:47;67053.53;;;10.77;nan
44144;BME280;71749;51.920;4.492;2024-03-17T08:37:36;67086.47;;;11.07;nan
44144;BME280;71749;51.920;4.492;2024-03-17T08:40:21;67116.03;;;11.34;nan
44144;BME280;71749;51.920;4.492;2024-03-17T08:43:06;67140.59;;;11.56;nan
44144;BME280;71749;51.920;4.492;2024-03-17T08:46:06;67113.97;;;11.34;nan
44144;BME280;71749;51.920;4.492;2024-03-17T08:48:50;67095.19;;;11.20;nan
44144;BME280;71749;51.920;4.492;2024-03-17T08:51:35;67147.84;;;11.63;nan
44144;BME280;71749;51.920;4.492;2024-03-17T08:54:19;67148.03;;;11.65;nan
44144;BME280;71749;51.920;4.492;2024-03-17T08:57:04;67197.03;;;12.07;nan
44144;BME280;71749;51.920;4.492;2024-03-17T08:59:48;67231.47;;;12.36;nan
44144;BME280;71749;51.920;4.492;2024-03-17T09:02:33;67183.06;;;11.95;nan
44144;BME280;71749;51.920;4.492;2024-03-17T09:05:17;67202.84;;;12.08;nan
44144;BME280;71749;51.920;4.492;2024-03-17T09:33:51;67293.09;;;12.94;nan
44144;BME280;71749;51.920;4.492;2024-03-17T10:19:41;67694.16;;;16.59;nan
44144;BME280;71749;51.920;4.492;2024-03-17T10:27:49;67746.84;;;17.07;nan
44144;BME280;71749;51.920;4.492;2024-03-17T10:30:33;67754.72;;;17.14;nan
44144;BME280;71749;51.920;4.492;2024-03-17T10:52:15;67708.41;;;16.67;nan
44144;BME280;71749;51.920;4.492;2024-03-17T12:50:59;67665.94;;;16.31;nan
44144;BME280;71749;51.920;4.492;2024-03-17T13:15:04;67676.75;;;16.44;nan
44144;BME280;71749;51.920;4.492;2024-03-17T14:11:40;67593.66;;;15.66;nan
44144;BME280;71749;51.920;4.492;2024-03-17T14:14:25;67559.47;;;15.35;nan
44144;BME280;71749;51.920;4.492;2024-03-17T14:17:09;67537.06;;;15.15;nan
44144;BME280;71749;51.920;4.492;2024-03-17T14:19:53;67539.31;;;15.17;nan
44144;BME280;71749;51.920;4.492;2024-03-17T14:22:37;67536.91;;;15.13;nan
44144;BME280;71749;51.920;4.492;2024-03-17T14:25:22;67553.16;;;15.27;nan
44144;BME280;71749;51.920;4.492;2024-03-17T14:28:07;67577.78;;;15.49;nan
44144;BME280;71749;51.920;4.492;2024-03-17T18:46:41;67331.13;;;13.29;nan
44144;BME280;71749;51.920;4.492;2024-03-17T18:52:01;67327.06;;;13.23;nan
44144;BME280;71749;51.920;4.492;2024-03-17T19:00:09;67315.31;;;13.12;nan
44144;BME280;71749;51.920;4.492;2024-03-17T19:05:33;67348.09;;;13.46;nan
44144;BME280;71749;51.920;4.492;2024-03-17T19:13:42;67302.06;;;13.02;nan
44144;BME280;71749;51.920;4.492;2024-03-17T19:16:27;67286.56;;;12.91;nan
44144;BME280;71749;51.920;4.492;2024-03-17T19:48:54;67423.59;;;14.15;nan
44144;BME280;71749;51.920;4.492;2024-03-17T19:51:39;67380.34;;;13.73;nan
44144;BME280;71749;51.920;4.492;2024-03-17T19:54:22;67373.47;;;13.65;nan
44144;BME280;71749;51.920;4.492;2024-03-17T19:57:07;67395.22;;;13.92;nan
44144;BME280;71749;51.920;4.492;2024-03-17T19:59:53;67412.97;;;14.05;nan
44144;BME280;71749;51.920;4.492;2024-03-17T20:02:44;67424.41;;;14.11;nan
44144;BME280;71749;51.920;4.492;2024-03-17T20:05:31;67434.06;;;14.22;nan
44144;BME280;71749;51.920;4.492;2024-03-17T20:08:15;67434.78;;;14.25;nan
44144;BME280;71749;51.920;4.492;2024-03-17T20:11:00;67426.78;;;14.15;nan
44144;BME280;71749;51.920;4.492;2024-03-17T20:13:44;67403.31;;;13.94;nan
44144;BME280;71749;51.920;4.492;2024-03-17T20:16:29;67430.88;;;14.21;nan
44144;BME280;71749;51.920;4.492;2024-03-17T20:19:15;67430.69;;;14.19;nan
44144;BME280;71749;51.920;4.492;2024-03-17T20:22:00;67453.66;;;14.40;nan
44144;BME280;71749;51.920;4.492;2024-03-17T20:24:46;67461.66;;;14.49;nan
44144;BME280;71749;51.920;4.492;2024-03-17T20:27:22;67476.44;;;14.58;nan
44144;BME280;71749;51.920;4.492;2024-03-17T20:30:07;67469.75;;;14.52;nan
44144;BME280;71749;51.920;4.492;2024-03-17T20:32:53;67466.69;;;14.54;nan
44144;BME280;71749;51.920;4.492;2024-03-17T20:35:37;67478.47;;;14.64;nan
44144;BME280;71749;51.920;4.492;2024-03-17T20:38:21;67482.38;;;14.68;nan
44144;BME280;71749;51.920;4.492;2024-03-17T20:41:06;67482.38;;;14.68;nan
44144;BME280;71749;51.920;4.492;2024-03-17T20:43:51;67487.25;;;14.70;nan
44144;BME280;71749;51.920;4.492;2024-03-17T20:46:35;67486.44;;;14.74;nan
44144;BME280;71749;51.920;4.492;2024-03-17T20:49:19;67494.13;;;14.79;nan
44144;BME280;71749;51.920;4.492;2024-03-17T20:52:03;67501.25;;;14.83;nan
44144;BME280;71749;51.920;4.492;2024-03-17T20:54:49;67474.38;;;14.58;nan
44144;BME280;71749;51.920;4.492;2024-03-17T20:57:36;67451.44;;;14.38;nan
44144;BME280;71749;51.920;4.492;2024-03-17T21:00:24;67447.63;;;14.37;nan
44144;BME280;71749;51.920;4.492;2024-03-17T21:03:10;67449.34;;;14.38;nan
44144;BME280;71749;51.920;4.492;2024-03-17T21:05:55;67434.38;;;14.27;nan
44144;BME280;71749;51.920;4.492;2024-03-17T21:08:39;67461.66;;;14.49;nan
44144;BME280;71749;51.920;4.492;2024-03-17T21:11:24;67482.22;;;14.65;nan
44144;BME280;71749;51.920;4.492;2024-03-17T21:14:08;67492.44;;;14.77;nan
44144;BME280;71749;51.920;4.492;2024-03-17T21:16:53;67502.19;;;14.81;nan
44144;BME280;71749;51.920;4.492;2024-03-17T21:19:39;67507.41;;;14.88;nan
44144;BME280;71749;51.920;4.492;2024-03-17T21:22:23;67510.34;;;14.93;nan
44144;BME280;71749;51.920;4.492;2024-03-17T21:25:08;67513.00;;;14.93;nan
44144;BME280;71749;51.920;4.492;2024-03-17T21:27:53;67513.56;;;14.94;nan
44144;BME280;71749;51.920;4.492;2024-03-17T21:30:40;67517.31;;;14.95;nan
44144;BME280;71749;51.920;4.492;2024-03-17T21:33:24;67521.22;;;14.98;nan
44144;BME280;71749;51.920;4.492;2024-03-17T21:36:08;67500.28;;;14.84;nan
44144;BME280;71749;51.920;4.492;2024-03-17T21:38:52;67512.59;;;14.95;nan
44144;BME280;71749;51.920;4.492;2024-03-17T21:41:36;67521.00;;;15.03;nan
44144;BME280;71749;51.920;4.492;2024-03-17T21:44:24;67527.56;;;15.06;nan
44144;BME280;71749;51.920;4.492;2024-03-17T21:47:08;67527.16;;;15.08;nan
44144;BME280;71749;51.920;4.492;2024-03-17T21:49:54;67518.53;;;15.05;nan
44144;BME280;71749;51.920;4.492;2024-03-17T21:52:38;67525.06;;;15.09;nan
44144;BME280;71749;51.920;4.492;2024-03-17T21:55:23;67525.81;;;15.12;nan
44144;BME280;71749;51.920;4.492;2024-03-17T21:58:08;67533.53;;;15.09;nan
44144;BME280;71749;51.920;4.492;2024-03-17T22:00:53;67525.47;;;15.07;nan
44144;BME280;71749;51.920;4.492;2024-03-17T22:03:37;67533.00;;;15.09;nan
44144;BME280;71749;51.920;4.492;2024-03-17T22:06:23;67531.09;;;15.12;nan
44144;BME280;71749;51.920;4.492;2024-03-17T22:09:07;67497.50;;;14.82;nan
44144;BME280;71749;51.920;4.492;2024-03-17T22:11:51;67515.25;;;14.95;nan
44144;BME280;71749;51.920;4.492;2024-03-17T22:14:35;67516.34;;;14.96;nan
44144;BME280;71749;51.920;4.492;2024-03-17T22:17:20;67527.16;;;15.08;nan
44144;BME280;71749;51.920;4.492;2024-03-17T22:20:06;67541.38;;;15.17;nan
44144;BME280;71749;51.920;4.492;2024-03-17T22:22:52;67540.59;;;15.21;nan
44144;BME280;71749;51.920;4.492;2024-03-17T22:25:36;67530.53;;;15.11;nan
44144;BME280;71749;51.920;4.492;2024-03-17T22:28:21;67518.03;;;14.98;nan
44144;BME280;71749;51.920;4.492;2024-03-17T22:31:05;67527.16;;;15.08;nan
44144;BME280;71749;51.920;4.492;2024-03-17T22:33:49;67532.44;;;15.08;nan
44144;BME280;71749;51.920;4.492;2024-03-17T22:36:34;67523.38;;;15.07;nan
44144;BME280;71749;51.920;4.492;2024-03-17T22:39:18;67528.28;;;15.09;nan
44144;BME280;71749;51.920;4.492;2024-03-17T22:42:03;67532.75;;;15.13;nan
44144;BME280;71749;51.920;4.492;2024-03-17T22:44:48;67529.00;;;15.13;nan
44144;BME280;71749;51.920;4.492;2024-03-17T22:47:32;67538.03;;;15.13;nan
44144;BME280;71749;51.920;4.492;2024-03-17T22:50:16;67526.75;;;15.10;nan
44144;BME280;71749;51.920;4.492;2024-03-17T22:53:01;67531.63;;;15.13;nan
44144;BME280;71749;51.920;4.492;2024-03-17T22:58:32;67523.25;;;15.05;nan
44144;BME280;71749;51.920;4.492;2024-03-17T23:01:24;67527.56;;;15.06;nan
44144;BME280;71749;51.920;4.492;2024-03-17T23:04:11;67521.97;;;15.01;nan
44144;BME280;71749;51.920;4.492;2024-03-17T23:06:55;67525.72;;;15.02;nan
44144;BME280;71749;51.920;4.492;2024-03-17T23:09:39;67516.34;;;14.96;nan
44144;BME280;71749;51.920;4.492;2024-03-17T23:12:24;67508.53;;;14.89;nan
44144;BME280;71749;51.920;4.492;2024-03-17T23:15:08;67511.47;;;14.94;nan
44144;BME280;71749;51.920;4.492;2024-03-17T23:17:53;67494.69;;;14.79;nan
44144;BME280;71749;51.920;4.492;2024-03-17T23:20:37;67488.53;;;14.74;nan
44144;BME280;71749;51.920;4.492;2024-03-17T23:23:21;67492.13;;;14.72;nan
44144;BME280;71749;51.920;4.492;2024-03-17T23:26:06;67491.72;;;14.74;nan
44144;BME280;71749;51.920;4.492;2024-03-17T23:28:51;67493.00;;;14.78;nan
44144;BME280;71749;51.920;4.492;2024-03-17T23:31:35;67493.00;;;14.78;nan
44144;BME280;71749;51.920;4.492;2024-03-17T23:34:20;67487.97;;;14.73;nan
44144;BME280;71749;51.920;4.492;2024-03-17T23:37:05;67493.97;;;14.76;nan
44144;BME280;71749;51.920;4.492;2024-03-17T23:39:49;67500.28;;;14.84;nan
44144;BME280;71749;51.920;4.492;2024-03-17T23:42:33;67501.41;;;14.85;nan
44144;BME280;71749;51.920;4.492;2024-03-17T23:45:18;67500.69;;;14.82;nan
44144;BME280;71749;51.920;4.492;2024-03-17T23:48:03;67487.09;;;14.67;nan
44144;BME280;71749;51.920;4.492;2024-03-17T23:50:47;67485.31;;;14.73;nan
44144;BME280;71749;51.920;4.492;2024-03-17T23:53:32;67499.97;;;14.79;nan
44144;BME280;71749;51.920;4.492;2024-03-17T23:56:16;67498.59;;;14.83;nan
44144;BME280;71749;51.920;4.492;2024-03-17T23:59:00;67487.25;;;14.70;nan
